臺中航空站 - ATIS

METAR RCMQ 281300Z 35007KT 9999 FEW010 25/22 Q1008 RMK A2978=

站台狀態:Offline
最後更新:2021-09-28 21:00:02